Time;durP1;ratioP1;P1;durP2;ratioP2;P2;SDS_P1;SDS_P2;PMS_P1;PMS_P2;Temp;Humidity;BMP_temperature;BMP_pressure;BME280_temperature;BME280_humidity;BME280_pressure;Samples;Min_cycle;Max_cycle;Signal;HPM_P1;HPM_P2
2023/01/03 00:01:20;;;;;;;15.05;8.90;;;3.60;99.90;;;;;;5070031;28;20040;-65
2023/01/03 00:03:45;;;;;;;23.45;9.98;;;3.50;99.90;;;;;;5070038;28;20115;-64
2023/01/03 00:06:21;;;;;;;15.10;8.93;;;3.50;99.90;;;;;;5070356;28;20538;-65
2023/01/03 00:08:47;;;;;;;16.42;8.27;;;3.50;99.90;;;;;;5069279;28;20036;-63
2023/01/03 00:11:15;;;;;;;19.05;8.70;;;3.50;99.90;;;;;;5070731;28;20041;-63
2023/01/03 00:13:41;;;;;;;11.23;7.65;;;3.50;99.90;;;;;;5069787;28;20111;-63
2023/01/03 00:16:19;;;;;;;12.30;7.93;;;3.50;99.90;;;;;;5068793;28;20079;-65
2023/01/03 00:18:45;;;;;;;15.68;8.60;;;3.50;99.90;;;;;;5069921;28;20044;-64
2023/01/03 00:21:11;;;;;;;15.32;8.25;;;3.40;99.90;;;;;;5053134;28;20052;-64
2023/01/03 00:23:37;;;;;;;19.95;9.02;;;3.40;99.90;;;;;;5066480;28;20032;-64
2023/01/03 00:26:14;;;;;;;20.58;8.90;;;3.40;99.90;;;;;;5068033;28;20048;-63
2023/01/03 00:28:41;;;;;;;18.80;9.40;;;3.40;99.90;;;;;;5067234;28;20048;-64
2023/01/03 00:31:08;;;;;;;16.25;8.82;;;3.30;99.90;;;;;;5069164;28;20047;-64
2023/01/03 00:33:36;;;;;;;14.23;9.07;;;3.40;99.90;;;;;;5067146;28;20044;-64
2023/01/03 00:36:03;;;;;;;14.43;8.55;;;3.40;99.90;;;;;;5066497;28;20123;-65
2023/01/03 00:38:29;;;;;;;15.60;9.18;;;3.30;99.90;;;;;;5065930;28;20047;-65
2023/01/03 00:41:03;;;;;;;16.92;9.05;;;3.40;99.90;;;;;;5065812;28;20075;-64
2023/01/03 00:43:28;;;;;;;13.98;8.57;;;3.30;99.90;;;;;;5066836;28;20048;-65
2023/01/03 00:45:54;;;;;;;19.40;9.98;;;3.30;99.90;;;;;;5069073;28;20050;-64
2023/01/03 00:48:20;;;;;;;18.42;9.65;;;3.20;99.90;;;;;;5067765;28;20043;-65
2023/01/03 00:50:45;;;;;;;16.55;9.15;;;3.20;99.90;;;;;;5051878;28;20064;-65
2023/01/03 00:53:11;;;;;;;14.80;9.77;;;3.20;99.90;;;;;;5068269;28;20514;-65
2023/01/03 00:55:37;;;;;;;13.52;8.95;;;3.20;99.90;;;;;;5068043;28;20051;-65
2023/01/03 00:58:02;;;;;;;19.50;9.68;;;3.20;99.90;;;;;;5051647;28;20476;-64
2023/01/03 01:00:28;;;;;;;17.02;9.27;;;3.20;99.90;;;;;;5068590;28;20047;-65
2023/01/03 01:02:54;;;;;;;21.13;9.88;;;3.20;99.90;;;;;;5068824;28;20048;-65
2023/01/03 01:05:21;;;;;;;16.42;9.52;;;3.20;99.90;;;;;;5067703;28;20399;-65
2023/01/03 01:07:46;;;;;;;21.70;10.07;;;3.20;99.90;;;;;;5051431;28;20036;-65
2023/01/03 01:10:12;;;;;;;17.33;9.75;;;3.20;99.90;;;;;;5068031;28;20051;-65
2023/01/03 01:12:38;;;;;;;15.25;9.25;;;3.20;99.90;;;;;;5068431;28;20036;-64
2023/01/03 01:15:04;;;;;;;16.67;9.52;;;3.20;99.90;;;;;;5068904;28;20028;-64
2023/01/03 01:17:30;;;;;;;17.30;10.68;;;3.10;99.90;;;;;;5068769;28;20048;-64
2023/01/03 01:19:55;;;;;;;19.33;10.65;;;3.10;99.90;;;;;;5068847;28;20040;-64
2023/01/03 01:22:21;;;;;;;17.35;10.30;;;3.10;99.90;;;;;;5068809;28;20044;-64
2023/01/03 01:24:47;;;;;;;17.40;10.23;;;3.00;99.90;;;;;;5052004;28;20090;-64
2023/01/03 01:27:12;;;;;;;19.27;10.93;;;3.00;99.90;;;;;;5068673;28;20455;-65
2023/01/03 01:29:38;;;;;;;18.95;9.65;;;3.00;99.90;;;;;;5069007;28;20589;-64
2023/01/03 01:32:05;;;;;;;17.55;10.13;;;3.00;99.90;;;;;;5068262;28;20518;-65
2023/01/03 01:34:31;;;;;;;17.20;10.70;;;3.00;99.90;;;;;;5067416;28;20380;-64
2023/01/03 01:36:57;;;;;;;19.35;10.88;;;3.00;99.90;;;;;;5065404;28;20119;-65
2023/01/03 01:39:26;;;;;;;18.98;11.18;;;3.00;99.90;;;;;;5051165;28;20151;-64
2023/01/03 01:44:53;;;;;;;18.60;11.23;;;3.00;99.90;;;;;;5066975;28;20055;-65
2023/01/03 01:47:47;;;;;;;17.58;10.63;;;3.00;99.90;;;;;;5067449;28;20044;-64
2023/01/03 01:50:16;;;;;;;17.55;10.55;;;3.00;99.90;;;;;;5068553;28;20056;-64
2023/01/03 01:53:13;;;;;;;22.00;11.32;;;3.00;99.90;;;;;;5066618;28;20102;-65
2023/01/03 01:55:54;;;;;;;20.48;11.40;;;3.00;99.90;;;;;;5067100;28;20048;-64
2023/01/03 01:58:24;;;;;;;23.67;11.60;;;3.00;99.90;;;;;;5067387;28;20040;-64
2023/01/03 02:00:49;;;;;;;28.15;10.98;;;3.00;99.90;;;;;;5066050;28;20041;-64
2023/01/03 02:03:15;;;;;;;21.55;11.88;;;3.00;99.90;;;;;;5066729;28;20044;-65
2023/01/03 02:05:46;;;;;;;22.00;12.25;;;3.00;99.90;;;;;;5051370;28;20048;-65
2023/01/03 02:08:12;;;;;;;26.30;14.35;;;2.90;99.90;;;;;;5066355;28;20123;-65
2023/01/03 02:11:13;;;;;;;22.75;12.77;;;2.90;99.90;;;;;;5066942;28;20552;-64
2023/01/03 02:14:02;;;;;;;18.20;12.10;;;2.90;99.90;;;;;;5065532;28;20059;-65
2023/01/03 02:16:55;;;;;;;23.75;13.48;;;2.90;99.90;;;;;;5065921;28;20032;-65
2023/01/03 02:19:21;;;;;;;;;;;3.00;99.90;;;;;;5071830;28;20519;-63
2023/01/03 02:22:14;;;;;;;28.17;12.73;;;2.90;99.90;;;;;;5071289;28;19928;-64
2023/01/03 02:24:57;;;;;;;27.08;13.90;;;2.90;99.90;;;;;;5066761;28;20047;-64
2023/01/03 02:27:50;;;;;;;27.88;13.82;;;3.00;99.90;;;;;;5070318;28;20044;-64
2023/01/03 02:30:28;;;;;;;;;;;2.90;99.90;;;;;;5066674;28;20052;-64
2023/01/03 02:33:22;;;;;;;26.52;14.18;;;2.90;99.90;;;;;;5068642;28;19928;-65
2023/01/03 02:36:03;;;;;;;25.80;15.18;;;2.80;99.90;;;;;;5068448;28;20052;-64
2023/01/03 02:38:44;;;;;;;25.83;14.38;;;2.90;99.90;;;;;;5071666;28;20083;-64
2023/01/03 02:42:56;;;;;;;25.30;15.05;;;2.80;99.90;;;;;;5086884;28;20068;-64
2023/01/03 02:44:49;;;;;;;25.00;14.30;;;2.90;99.90;;;;;;5013357;28;20123;-64
2023/01/03 02:47:18;;;;;;;23.38;14.60;;;2.90;99.90;;;;;;5013360;28;20176;-65
2023/01/03 02:49:49;;;;;;;26.25;14.43;;;2.90;99.90;;;;;;5013647;28;20586;-65
2023/01/03 02:52:19;;;;;;;38.13;16.02;;;2.90;99.90;;;;;;5013215;28;20065;-64
2023/01/03 02:54:48;;;;;;;28.52;15.98;;;2.80;99.90;;;;;;5012159;28;20053;-62
2023/01/03 02:57:18;;;;;;;29.90;16.55;;;2.80;99.90;;;;;;5013361;28;20037;-64
2023/01/03 03:00:02;;;;;;;25.92;14.80;;;2.70;99.90;;;;;;5013476;28;20049;-63
2023/01/03 03:02:31;;;;;;;26.50;14.27;;;2.70;99.90;;;;;;5013623;28;20167;-64
2023/01/03 03:04:59;;;;;;;29.17;15.43;;;2.70;99.90;;;;;;5013340;28;20179;-64
2023/01/03 03:07:30;;;;;;;27.25;16.25;;;2.70;99.90;;;;;;5013150;28;20155;-64
2023/01/03 03:15:36;;;;;;;23.13;14.77;;;2.80;99.90;;;;;;5013339;28;20096;-64
2023/01/03 03:18:09;;;;;;;29.80;16.50;;;2.80;99.90;;;;;;5012450;28;20049;-65
2023/01/03 03:26:11;;;;;;;25.25;15.68;;;2.70;99.90;;;;;;5070557;28;20113;-64
2023/01/03 03:28:42;;;;;;;27.30;15.45;;;2.70;99.90;;;;;;5069659;28;20050;-63
2023/01/03 03:31:21;;;;;;;27.27;16.33;;;2.70;99.90;;;;;;5070497;28;20055;-64
2023/01/03 03:34:10;;;;;;;27.90;14.93;;;2.70;99.90;;;;;;5069070;28;20487;-64
2023/01/03 03:36:51;;;;;;;26.95;16.35;;;2.70;99.90;;;;;;5070464;28;20040;-64
2023/01/03 03:45:34;;;;;;;22.73;14.57;;;2.80;99.90;;;;;;5069198;28;20082;-63
2023/01/03 03:48:24;;;;;;;25.25;14.77;;;2.80;99.90;;;;;;5063654;28;20577;-64
2023/01/03 03:51:02;;;;;;;24.85;13.82;;;2.80;99.90;;;;;;5068544;28;20046;-65
2023/01/03 03:53:32;;;;;;;22.33;13.63;;;2.70;99.90;;;;;;5068737;28;20056;-63
2023/01/03 03:56:09;;;;;;;29.05;15.90;;;2.70;99.90;;;;;;5069990;28;20039;-65
2023/01/03 03:58:50;;;;;;;20.17;12.88;;;2.70;99.90;;;;;;5069515;28;20028;-63
2023/01/03 04:01:19;;;;;;;21.80;14.20;;;2.70;99.90;;;;;;5069897;28;20033;-63
2023/01/03 04:03:47;;;;;;;20.58;13.43;;;2.70;99.90;;;;;;5069964;28;20044;-65
2023/01/03 04:06:21;;;;;;;20.63;12.98;;;2.60;99.90;;;;;;5071510;28;20047;-65
2023/01/03 04:08:47;;;;;;;22.60;13.35;;;2.60;99.90;;;;;;5067900;28;20048;-64
2023/01/03 04:11:13;;;;;;;25.20;14.43;;;2.60;99.90;;;;;;5069848;28;20045;-64
2023/01/03 04:13:39;;;;;;;28.13;13.65;;;2.50;99.90;;;;;;5067225;28;20076;-62
2023/01/03 04:16:05;;;;;;;25.55;14.63;;;2.50;99.90;;;;;;5069810;28;20102;-65
2023/01/03 04:18:32;;;;;;;21.48;13.50;;;2.50;99.90;;;;;;5069411;28;20081;-65
2023/01/03 04:20:57;;;;;;;23.35;13.18;;;2.40;99.90;;;;;;5066353;28;20040;-64
2023/01/03 04:23:23;;;;;;;22.50;13.35;;;2.40;99.90;;;;;;5068929;28;20545;-64
2023/01/03 04:25:49;;;;;;;21.88;13.98;;;2.40;99.90;;;;;;5069352;28;20426;-65
2023/01/03 04:28:16;;;;;;;21.52;14.10;;;2.40;99.90;;;;;;5069109;28;20045;-64
2023/01/03 04:30:42;;;;;;;20.73;13.48;;;2.40;99.90;;;;;;5068410;28;20047;-65
2023/01/03 04:33:07;;;;;;;23.42;14.73;;;2.40;99.90;;;;;;5069034;28;20476;-64
2023/01/03 04:35:34;;;;;;;21.75;13.38;;;2.40;99.90;;;;;;5069230;28;20040;-65
2023/01/03 04:38:00;;;;;;;21.83;14.18;;;2.40;99.90;;;;;;5070210;28;20036;-65
2023/01/03 04:40:25;;;;;;;22.20;13.85;;;2.40;99.90;;;;;;5069030;28;20041;-64
2023/01/03 04:45:36;;;;;;;24.73;14.27;;;2.30;99.90;;;;;;5068839;28;20046;-65
2023/01/03 04:48:03;;;;;;;22.75;13.90;;;2.30;99.90;;;;;;5068857;28;20466;-64
2023/01/03 04:50:29;;;;;;;21.27;14.00;;;2.30;99.90;;;;;;5068653;28;20043;-64
2023/01/03 04:52:55;;;;;;;21.88;12.90;;;2.30;99.90;;;;;;5067945;28;20063;-64
2023/01/03 04:55:21;;;;;;;21.05;13.40;;;2.30;99.90;;;;;;5069093;28;20041;-64
2023/01/03 04:57:46;;;;;;;25.88;14.10;;;2.30;99.90;;;;;;5068939;28;20103;-64
2023/01/03 05:00:13;;;;;;;20.92;13.05;;;2.30;99.90;;;;;;5070727;28;20109;-64
2023/01/03 05:02:38;;;;;;;21.63;13.90;;;2.30;99.90;;;;;;5068455;28;20048;-64
2023/01/03 05:05:05;;;;;;;19.95;12.77;;;2.30;99.90;;;;;;5068725;28;20044;-65
2023/01/03 05:07:30;;;;;;;23.00;14.23;;;2.30;99.90;;;;;;5069171;28;20043;-64
2023/01/03 05:09:56;;;;;;;22.38;14.40;;;2.30;99.90;;;;;;5069189;28;20671;-63
2023/01/03 05:12:22;;;;;;;25.00;14.50;;;2.20;99.90;;;;;;5066256;28;20044;-64
2023/01/03 05:14:47;;;;;;;21.92;14.10;;;2.20;99.90;;;;;;5067486;28;20044;-64
2023/01/03 05:17:13;;;;;;;22.98;14.07;;;2.20;99.90;;;;;;5067984;28;20117;-64
2023/01/03 05:25:48;;;;;;;24.02;14.68;;;2.20;99.90;;;;;;5068670;28;20498;-64
2023/01/03 05:27:56;;;;;;;26.45;15.32;;;2.20;99.90;;;;;;5069914;28;20394;-65
2023/01/03 05:30:22;;;;;;;24.95;14.68;;;2.20;99.90;;;;;;5052122;28;20052;-63
2023/01/03 05:32:48;;;;;;;21.77;15.23;;;2.20;99.90;;;;;;5068576;28;20041;-64
2023/01/03 05:35:13;;;;;;;25.95;15.05;;;2.10;99.90;;;;;;5051546;28;20041;-64
2023/01/03 05:37:39;;;;;;;22.02;16.00;;;2.10;99.90;;;;;;5068435;28;20048;-64
2023/01/03 05:40:05;;;;;;;26.33;15.60;;;2.10;99.90;;;;;;5068343;28;20048;-64
2023/01/03 05:42:31;;;;;;;23.42;15.60;;;2.10;99.90;;;;;;5068725;28;20438;-65
2023/01/03 05:44:57;;;;;;;26.05;16.02;;;2.00;99.90;;;;;;5068158;28;20033;-63
2023/01/03 05:47:22;;;;;;;25.25;16.40;;;2.00;99.90;;;;;;5068953;28;20091;-64
2023/01/03 05:49:48;;;;;;;26.48;16.98;;;2.00;99.90;;;;;;5068569;28;20049;-63
2023/01/03 05:52:13;;;;;;;25.00;16.73;;;2.00;99.90;;;;;;5066642;28;20090;-65
2023/01/03 05:54:39;;;;;;;24.02;16.52;;;2.00;99.90;;;;;;5072431;28;20147;-65
2023/01/03 05:57:05;;;;;;;26.15;16.48;;;2.00;99.90;;;;;;5071307;28;20056;-64
2023/01/03 05:59:30;;;;;;;26.70;17.08;;;2.00;99.90;;;;;;5072466;28;20039;-64
2023/01/03 06:01:56;;;;;;;25.45;17.55;;;2.00;99.90;;;;;;5072235;28;20070;-64
2023/01/03 06:04:22;;;;;;;25.85;16.88;;;2.00;99.90;;;;;;5072291;28;20121;-64
2023/01/03 06:06:47;;;;;;;24.73;16.52;;;2.00;99.90;;;;;;5071884;28;20055;-64
2023/01/03 06:09:13;;;;;;;25.58;17.42;;;2.00;99.90;;;;;;5072182;28;20052;-62
2023/01/03 06:11:39;;;;;;;26.13;17.10;;;1.90;99.90;;;;;;5068287;28;20036;-64
2023/01/03 06:14:05;;;;;;;26.08;17.60;;;2.00;99.90;;;;;;5071610;28;20037;-64
2023/01/03 06:19:15;;;;;;;23.20;17.55;;;2.00;99.90;;;;;;5084681;28;20047;-63
2023/01/03 06:21:41;;;;;;;25.00;16.58;;;2.00;99.90;;;;;;5069844;28;20303;-63
2023/01/03 06:24:07;;;;;;;23.50;17.00;;;2.00;99.90;;;;;;5068791;28;20036;-64
2023/01/03 06:26:33;;;;;;;22.80;15.60;;;2.00;99.90;;;;;;5071673;28;20056;-63
2023/01/03 06:28:59;;;;;;;25.15;17.73;;;2.00;99.90;;;;;;5070007;28;20086;-63
2023/01/03 06:31:25;;;;;;;23.73;17.65;;;2.00;99.90;;;;;;5071093;28;20434;-63
2023/01/03 06:33:51;;;;;;;22.80;17.15;;;2.00;99.90;;;;;;5071050;28;20041;-65
2023/01/03 06:36:19;;;;;;;28.08;18.50;;;2.00;99.90;;;;;;5069845;28;20098;-64
2023/01/03 06:38:45;;;;;;;29.15;18.85;;;2.00;99.90;;;;;;5069180;28;20048;-64
2023/01/03 06:41:12;;;;;;;29.85;18.88;;;2.00;99.90;;;;;;5067086;28;20037;-64
2023/01/03 06:43:37;;;;;;;33.00;19.67;;;2.00;99.90;;;;;;5069676;28;20060;-64
2023/01/03 06:54:30;;;;;;;90.85;17.20;;;1.90;99.90;;;;;;5071143;28;20065;-63
2023/01/03 06:56:56;;;;;;;45.05;15.15;;;1.90;99.90;;;;;;5071665;28;20395;-64
2023/01/03 06:59:22;;;;;;;72.95;14.13;;;1.90;99.90;;;;;;5071055;28;20043;-63
2023/01/03 07:01:49;;;;;;;31.10;14.52;;;1.90;99.90;;;;;;5070848;28;20044;-64
2023/01/03 07:04:16;;;;;;;90.95;13.98;;;1.80;99.90;;;;;;5070636;28;20039;-64
2023/01/03 07:06:42;;;;;;;60.78;13.95;;;1.70;99.90;;;;;;5072488;28;20047;-63
2023/01/03 07:09:08;;;;;;;86.57;14.30;;;1.70;99.90;;;;;;5071085;28;20047;-64
2023/01/03 07:11:35;;;;;;;31.65;13.35;;;1.70;99.90;;;;;;5070471;28;20098;-65
2023/01/03 07:14:02;;;;;;;27.55;13.55;;;1.70;99.90;;;;;;5082076;28;20119;-63
2023/01/03 07:16:36;;;;;;;43.28;14.05;;;1.70;99.90;;;;;;5071431;28;20044;-65
2023/01/03 07:19:04;;;;;;;82.57;14.48;;;1.70;99.90;;;;;;5071445;28;20038;-65
2023/01/03 07:21:32;;;;;;;60.55;14.80;;;1.70;99.90;;;;;;5069105;28;20040;-64
2023/01/03 07:24:03;;;;;;;77.15;13.95;;;1.80;99.90;;;;;;5070407;28;20036;-63
2023/01/03 07:26:31;;;;;;;32.97;13.02;;;1.80;99.90;;;;;;5069794;28;20086;-64
2023/01/03 07:28:57;;;;;;;61.60;14.32;;;1.80;99.90;;;;;;5071151;28;20052;-63
2023/01/03 07:31:23;;;;;;;98.80;16.42;;;1.90;99.90;;;;;;5068700;28;20044;-63
2023/01/03 07:33:49;;;;;;;32.45;15.13;;;2.00;99.90;;;;;;5070202;28;20455;-64
2023/01/03 07:36:15;;;;;;;87.50;15.13;;;2.00;99.90;;;;;;5070582;28;20044;-63
2023/01/03 07:38:43;;;;;;;55.03;15.95;;;2.10;99.90;;;;;;5067498;28;20235;-65
2023/01/03 07:41:10;;;;;;;169.13;18.35;;;2.20;99.90;;;;;;5070401;28;20032;-66
2023/01/03 07:43:39;;;;;;;103.00;18.55;;;2.20;99.90;;;;;;5068099;28;20040;-63
2023/01/03 07:46:07;;;;;;;56.78;17.23;;;2.20;99.90;;;;;;5069533;28;20132;-64
2023/01/03 07:48:33;;;;;;;147.57;19.42;;;2.30;99.90;;;;;;5069856;28;20036;-64
2023/01/03 07:50:59;;;;;;;162.35;20.08;;;2.40;99.90;;;;;;5070519;28;20055;-64
2023/01/03 07:53:25;;;;;;;62.83;18.90;;;2.40;99.90;;;;;;5068376;28;20048;-64
2023/01/03 07:55:51;;;;;;;47.60;19.77;;;2.50;99.90;;;;;;5069086;28;20071;-64
2023/01/03 07:58:16;;;;;;;81.28;21.40;;;2.60;99.90;;;;;;5068571;28;20471;-64
2023/01/03 08:00:42;;;;;;;160.10;23.17;;;2.70;99.90;;;;;;5066508;28;20036;-64
2023/01/03 08:03:08;;;;;;;110.15;23.33;;;2.70;99.90;;;;;;5066625;28;20044;-64
2023/01/03 08:05:34;;;;;;;129.70;23.67;;;2.80;99.90;;;;;;5069465;28;20119;-64
2023/01/03 08:08:01;;;;;;;89.95;23.50;;;2.90;99.90;;;;;;5068010;28;20443;-64
2023/01/03 08:13:28;;;;;;;92.07;25.65;;;3.00;99.90;;;;;;5012029;28;20049;-64
2023/01/03 08:15:55;;;;;;;70.95;26.77;;;3.00;99.90;;;;;;5007931;28;20132;-65
2023/01/03 08:18:26;;;;;;;64.80;25.40;;;3.10;99.90;;;;;;5010894;28;20254;-65
2023/01/03 08:20:54;;;;;;;58.08;26.45;;;3.20;99.90;;;;;;5009069;28;20054;-64
2023/01/03 08:23:23;;;;;;;53.78;26.50;;;3.30;99.90;;;;;;4995764;28;20046;-63
2023/01/03 08:25:49;;;;;;;55.72;27.80;;;3.40;99.90;;;;;;5026278;28;20528;-64
2023/01/03 08:28:15;;;;;;;60.58;29.67;;;3.40;99.90;;;;;;5011859;28;20049;-64
2023/01/03 08:30:47;;;;;;;58.55;28.38;;;3.50;99.90;;;;;;5007929;28;20064;-63
2023/01/03 08:33:15;;;;;;;62.37;30.03;;;3.60;99.90;;;;;;5010368;28;20051;-65
2023/01/03 08:35:47;;;;;;;63.60;29.42;;;3.70;99.90;;;;;;5011747;28;20288;-63
2023/01/03 08:38:19;;;;;;;60.28;28.60;;;3.70;99.90;;;;;;5011592;28;20034;-64
2023/01/03 08:40:46;;;;;;;60.22;29.75;;;3.80;99.90;;;;;;5006449;28;20200;-65
2023/01/03 08:43:13;;;;;;;59.13;30.17;;;3.80;99.90;;;;;;5007151;28;20045;-65
2023/01/03 08:45:39;;;;;;;62.75;29.33;;;3.90;99.90;;;;;;5006776;28;20081;-65
2023/01/03 08:48:06;;;;;;;60.60;28.20;;;4.00;99.90;;;;;;5035219;28;20056;-66
2023/01/03 08:50:32;;;;;;;60.90;29.73;;;4.00;99.90;;;;;;5068728;28;20048;-65
2023/01/03 08:52:58;;;;;;;58.63;28.88;;;4.10;99.90;;;;;;5067372;28;20396;-65
2023/01/03 08:55:25;;;;;;;69.32;31.13;;;4.10;99.90;;;;;;5068576;28;20435;-65
2023/01/03 08:57:51;;;;;;;59.45;28.33;;;4.10;99.90;;;;;;5050031;28;20114;-64
2023/01/03 09:00:17;;;;;;;59.17;29.70;;;4.20;99.90;;;;;;5058986;28;20127;-65
2023/01/03 09:02:42;;;;;;;55.65;29.58;;;4.20;99.90;;;;;;5064916;28;20052;-65
2023/01/03 09:05:08;;;;;;;58.53;30.55;;;4.30;99.90;;;;;;5063146;28;20048;-64
2023/01/03 09:07:34;;;;;;;57.28;30.23;;;4.30;99.90;;;;;;5066561;28;20036;-64
2023/01/03 09:10:00;;;;;;;57.58;30.15;;;4.30;99.90;;;;;;5068757;28;20052;-65
2023/01/03 09:12:26;;;;;;;59.53;30.35;;;4.40;99.90;;;;;;5068933;28;20398;-65
2023/01/03 09:14:52;;;;;;;60.30;31.17;;;4.40;99.90;;;;;;5068708;28;20132;-65
2023/01/03 09:17:17;;;;;;;61.80;32.15;;;4.40;99.90;;;;;;5067767;28;20123;-65
2023/01/03 09:19:43;;;;;;;61.58;32.80;;;4.50;99.90;;;;;;5066801;28;20029;-64
2023/01/03 09:22:09;;;;;;;70.75;33.17;;;4.50;99.90;;;;;;5062854;28;20052;-64
2023/01/03 09:24:34;;;;;;;59.50;32.65;;;4.50;99.90;;;;;;5066169;28;20119;-65
2023/01/03 09:27:00;;;;;;;65.95;33.58;;;4.60;99.90;;;;;;5065197;28;20055;-64
2023/01/03 09:29:26;;;;;;;68.75;34.38;;;4.60;99.90;;;;;;5065588;28;20416;-65
2023/01/03 09:31:51;;;;;;;62.50;33.60;;;4.60;99.90;;;;;;5064562;28;20506;-65
2023/01/03 09:34:17;;;;;;;65.25;33.78;;;4.60;99.90;;;;;;5067615;28;20114;-65
2023/01/03 09:36:43;;;;;;;64.78;31.67;;;4.60;99.90;;;;;;5065137;28;20032;-65
2023/01/03 09:39:08;;;;;;;65.75;33.03;;;4.60;99.90;;;;;;5065445;28;20041;-65
2023/01/03 09:41:34;;;;;;;69.10;33.65;;;4.60;99.90;;;;;;5067623;28;20513;-65
2023/01/03 09:44:03;;;;;;;62.05;33.42;;;4.60;99.90;;;;;;5065650;28;20049;-65
2023/01/03 09:46:31;;;;;;;66.03;33.20;;;4.60;99.90;;;;;;5065802;28;20098;-65
2023/01/03 09:48:58;;;;;;;59.88;31.55;;;4.60;99.90;;;;;;5066518;28;20044;-64
2023/01/03 10:03:44;;;;;;;57.50;31.80;;;4.80;99.90;;;;;;5068092;28;20051;-65
2023/01/03 10:06:24;;;;;;;54.85;31.10;;;4.90;99.90;;;;;;5058950;28;20053;-65
2023/01/03 10:09:25;;;;;;;53.17;30.33;;;5.00;99.90;;;;;;5065927;28;20040;-64
2023/01/03 10:11:59;;;;;;;54.13;31.08;;;5.00;99.90;;;;;;5025207;28;20053;-64
2023/01/03 10:14:36;;;;;;;59.10;32.10;;;5.10;99.90;;;;;;5027995;28;20096;-65
2023/01/03 10:17:35;;;;;;;57.85;31.98;;;5.10;99.90;;;;;;5022382;28;20048;-65
2023/01/03 10:20:14;;;;;;;53.75;30.55;;;5.10;99.90;;;;;;5023366;28;20033;-65
2023/01/03 10:22:40;;;;;;;49.95;29.48;;;5.20;99.90;;;;;;5027602;28;20059;-65
2023/01/03 10:25:24;;;;;;;57.65;30.00;;;5.30;99.90;;;;;;5021952;28;20053;-65
2023/01/03 10:28:00;;;;;;;50.30;27.70;;;5.30;99.90;;;;;;5023368;28;20752;-64
2023/01/03 10:30:29;;;;;;;47.92;27.77;;;5.30;99.90;;;;;;5045809;28;20128;-65
2023/01/03 10:33:17;;;;;;;52.15;28.08;;;5.30;99.90;;;;;;5029245;28;20045;-63
2023/01/03 10:35:43;;;;;;;47.20;25.80;;;5.30;99.90;;;;;;5028367;28;20424;-65
2023/01/03 10:38:09;;;;;;;46.42;27.70;;;5.40;99.90;;;;;;5031215;28;20044;-64
2023/01/03 10:40:40;;;;;;;49.30;26.20;;;5.40;99.90;;;;;;5031825;28;20045;-64
2023/01/03 10:43:24;;;;;;;41.13;24.98;;;5.40;99.90;;;;;;5030233;28;20076;-64
2023/01/03 10:45:55;;;;;;;45.38;26.70;;;5.50;99.90;;;;;;5034148;28;20488;-65
2023/01/03 10:48:23;;;;;;;43.38;23.23;;;5.50;99.90;;;;;;5053031;28;20522;-65
2023/01/03 10:50:49;;;;;;;38.03;22.15;;;5.50;99.90;;;;;;5069455;28;20040;-65
2023/01/03 10:53:19;;;;;;;36.15;21.17;;;5.60;99.90;;;;;;5070317;28;20057;-65
2023/01/03 10:55:54;;;;;;;34.85;21.27;;;5.60;99.90;;;;;;5068412;28;20036;-64
2023/01/03 10:58:26;;;;;;;31.15;19.95;;;5.60;99.90;;;;;;5054218;28;20048;-65
2023/01/03 11:01:07;;;;;;;35.33;21.20;;;5.70;99.90;;;;;;5071413;28;20055;-64
2023/01/03 11:03:33;;;;;;;36.33;20.10;;;5.70;99.90;;;;;;5070389;28;20045;-66
2023/01/03 11:05:59;;;;;;;32.95;20.65;;;5.70;99.90;;;;;;5071247;28;20402;-65
2023/01/03 11:08:45;;;;;;;33.45;19.38;;;5.70;99.90;;;;;;5069027;28;20044;-65
2023/01/03 11:11:43;;;;;;;31.85;20.48;;;5.80;99.90;;;;;;5071592;28;20434;-65
2023/01/03 11:14:23;;;;;;;31.80;19.52;;;5.80;99.90;;;;;;5011372;28;20736;-65
2023/01/03 11:16:58;;;;;;;30.27;18.42;;;5.80;99.90;;;;;;4997385;28;20092;-65
2023/01/03 11:19:29;;;;;;;28.65;19.17;;;5.80;99.90;;;;;;5012891;28;20095;-65
2023/01/03 11:22:04;;;;;;;35.53;19.83;;;5.80;99.90;;;;;;4994088;28;20404;-65
2023/01/03 11:24:54;;;;;;;28.90;17.70;;;5.80;99.90;;;;;;5010436;28;20128;-65
2023/01/03 11:27:46;;;;;;;29.95;18.40;;;5.90;99.90;;;;;;5026353;28;20119;-64
2023/01/03 11:30:18;;;;;;;28.35;18.48;;;5.90;99.90;;;;;;5029408;28;20072;-66
2023/01/03 11:33:10;;;;;;;33.65;18.50;;;5.90;99.90;;;;;;4997032;28;20049;-65
2023/01/03 11:35:36;;;;;;;31.10;18.48;;;5.90;99.90;;;;;;5012290;28;20491;-66
2023/01/03 11:38:26;;;;;;;32.38;18.95;;;5.90;99.90;;;;;;5012619;28;20053;-65
2023/01/03 11:41:37;;;;;;;28.00;18.95;;;5.90;99.90;;;;;;5012539;28;20044;-67
2023/01/03 11:44:37;;;;;;;27.40;17.73;;;6.00;99.90;;;;;;5012504;28;20045;-65
2023/01/03 11:47:33;;;;;;;24.85;17.05;;;6.00;99.90;;;;;;4994993;28;20112;-67
2023/01/03 11:50:14;;;;;;;32.90;19.55;;;6.00;99.90;;;;;;5038356;28;20057;-65
2023/01/03 11:53:02;;;;;;;34.70;17.98;;;6.00;99.90;;;;;;5067715;28;20072;-66
2023/01/03 11:55:45;;;;;;;32.05;18.25;;;6.00;99.90;;;;;;5066796;28;20510;-66
2023/01/03 11:58:56;;;;;;;30.83;16.73;;;6.10;99.90;;;;;;5067978;28;20039;-64
2023/01/03 12:01:56;;;;;;;32.40;17.58;;;6.10;99.90;;;;;;5065750;28;20040;-62
2023/01/03 12:04:26;;;;;;;28.05;17.08;;;6.10;99.90;;;;;;5056133;28;20139;-64
2023/01/03 12:07:14;;;;;;;30.08;17.45;;;6.10;99.90;;;;;;5065822;28;20040;-64
2023/01/03 12:09:46;;;;;;;28.85;16.88;;;6.10;99.90;;;;;;5069427;28;20037;-64
2023/01/03 12:12:21;;;;;;;32.80;18.17;;;6.10;99.90;;;;;;5068750;28;20047;-62
2023/01/03 12:14:57;;;;;;;31.10;16.98;;;6.10;99.90;;;;;;5069514;28;20044;-66
2023/01/03 12:17:42;;;;;;;32.70;17.83;;;6.20;99.90;;;;;;5068389;28;20038;-62
2023/01/03 12:20:09;;;;;;;32.33;17.17;;;6.20;99.90;;;;;;5069395;28;20032;-63
2023/01/03 12:23:02;;;;;;;32.33;16.08;;;6.20;99.90;;;;;;5053320;28;20107;-64
2023/01/03 12:25:36;;;;;;;32.22;16.92;;;6.20;99.90;;;;;;5052639;28;20044;-63
2023/01/03 12:28:08;;;;;;;27.33;16.38;;;6.20;99.90;;;;;;5068723;28;20086;-64
2023/01/03 12:30:50;;;;;;;;;;;6.30;99.90;;;;;;5068875;28;21508;-66
2023/01/03 12:33:30;;;;;;;32.50;17.88;;;6.20;99.90;;;;;;5069640;28;20321;-66
2023/01/03 12:36:23;;;;;;;35.88;18.55;;;6.30;99.90;;;;;;5068327;28;20055;-65
2023/01/03 12:39:00;;;;;;;;;;;6.30;99.90;;;;;;5068864;28;20437;-65
2023/01/03 12:42:00;;;;;;;33.85;17.63;;;6.30;99.90;;;;;;5068696;28;19959;-65
2023/01/03 12:44:39;;;;;;;34.35;17.77;;;6.30;99.90;;;;;;5069459;28;20039;-65
2023/01/03 12:47:10;;;;;;;39.10;18.73;;;6.30;99.90;;;;;;5067917;28;20052;-65
2023/01/03 12:50:06;;;;;;;33.13;18.60;;;6.30;99.90;;;;;;5068485;28;20071;-65
2023/01/03 12:52:32;;;;;;;35.80;19.77;;;6.40;99.90;;;;;;5068163;28;20045;-64
2023/01/03 12:55:07;;;;;;;34.10;18.70;;;6.30;99.90;;;;;;5067249;28;20494;-65
2023/01/03 12:57:44;;;;;;;36.20;18.10;;;6.40;99.90;;;;;;5069317;28;20033;-64
2023/01/03 13:00:43;;;;;;;30.42;17.90;;;6.40;99.90;;;;;;5067067;28;20036;-66
2023/01/03 13:03:45;;;;;;;31.58;18.70;;;6.40;99.90;;;;;;5051049;28;20123;-64
2023/01/03 13:06:27;;;;;;;32.30;16.98;;;6.50;99.90;;;;;;5067137;28;20037;-64
2023/01/03 13:09:03;;;;;;;33.67;17.73;;;6.50;99.90;;;;;;5069100;28;20093;-65
2023/01/03 13:11:42;;;;;;;30.15;17.65;;;6.60;99.90;;;;;;5068446;28;20506;-65
2023/01/03 13:14:20;;;;;;;37.17;18.30;;;6.90;99.90;;;;;;5069041;28;20047;-65
2023/01/03 13:17:05;;;;;;;27.48;16.60;;;7.50;99.90;;;;;;5066836;28;20040;-64
2023/01/03 13:19:34;;;;;;;27.20;15.48;;;8.00;99.90;;;;;;5068089;28;20544;-65
2023/01/03 13:22:03;;;;;;;27.45;15.57;;;8.00;99.90;;;;;;5068979;28;20048;-64
2023/01/03 13:24:52;;;;;;;25.42;14.15;;;7.90;99.90;;;;;;5068078;28;20110;-65
2023/01/03 13:27:21;;;;;;;23.65;13.77;;;7.70;99.90;;;;;;5063980;28;20047;-65
2023/01/03 13:29:50;;;;;;;19.77;13.52;;;7.60;99.90;;;;;;5068375;28;20036;-64
2023/01/03 13:32:27;;;;;;;20.70;13.35;;;7.50;99.90;;;;;;5069150;28;20044;-64
2023/01/03 13:34:53;;;;;;;21.13;12.95;;;7.40;99.90;;;;;;5065167;28;20091;-64
2023/01/03 13:37:21;;;;;;;19.10;13.13;;;7.30;99.90;;;;;;5064442;28;20068;-65
2023/01/03 13:39:49;;;;;;;18.40;12.98;;;7.30;99.90;;;;;;5069825;28;20041;-64
2023/01/03 13:42:21;;;;;;;20.83;13.07;;;7.30;99.90;;;;;;5051185;28;20486;-65
2023/01/03 13:44:46;;;;;;;19.90;12.60;;;7.20;99.90;;;;;;5065598;28;20051;-64
2023/01/03 13:47:34;;;;;;;22.33;12.48;;;7.20;99.90;;;;;;5069864;28;20040;-64
2023/01/03 13:49:59;;;;;;;21.80;12.60;;;7.10;99.90;;;;;;5066493;28;20076;-64
2023/01/03 13:52:54;;;;;;;15.65;12.35;;;7.10;99.90;;;;;;5067598;28;20393;-64
2023/01/03 13:55:36;;;;;;;19.35;11.40;;;7.10;99.90;;;;;;5065051;28;20123;-65
2023/01/03 13:58:23;;;;;;;17.83;11.85;;;7.10;99.90;;;;;;5068608;28;20087;-64